Time;durP1;ratioP1;P1;durP2;ratioP2;P2;SDS_P1;SDS_P2;PMS_P1;PMS_P2;Temp;Humidity;BMP_temperature;BMP_pressure;BME280_temperature;BME280_humidity;BME280_pressure;Samples;Min_cycle;Max_cycle;Signal;HPM_P1;HPM_P2
2023/01/02 00:02:19;;;;;;;1.73;1.42;;;23.10;59.30;;;;;;6082719;23;20511;-63
2023/01/02 00:04:45;;;;;;;1.42;1.33;;;23.10;59.40;;;;;;6084404;23;20014;-61
2023/01/02 00:07:10;;;;;;;1.45;1.15;;;23.10;59.30;;;;;;6084218;23;20326;-61
2023/01/02 00:09:36;;;;;;;1.60;1.50;;;23.10;59.20;;;;;;6084759;23;20461;-63
2023/01/02 00:12:02;;;;;;;1.70;1.30;;;23.20;59.30;;;;;;6085780;23;20022;-61
2023/01/02 00:14:28;;;;;;;1.15;1.05;;;23.20;59.30;;;;;;6085594;23;20050;-61
2023/01/02 00:16:53;;;;;;;1.40;1.30;;;23.10;59.20;;;;;;6086469;23;20022;-61
2023/01/02 00:19:19;;;;;;;1.42;1.20;;;23.10;59.20;;;;;;6085971;23;20301;-63
2023/01/02 00:21:45;;;;;;;1.35;1.13;;;23.10;59.20;;;;;;6084388;23;20021;-61
2023/01/02 00:24:10;;;;;;;1.77;1.20;;;23.10;59.20;;;;;;6085347;23;20043;-62
2023/01/02 00:26:36;;;;;;;1.65;1.17;;;23.10;59.10;;;;;;6084662;23;20018;-62
2023/01/02 00:29:02;;;;;;;1.73;1.30;;;23.10;59.00;;;;;;6085280;23;20029;-64
2023/01/02 00:31:27;;;;;;;1.70;1.10;;;23.20;59.10;;;;;;6086189;23;20688;-64
2023/01/02 00:33:53;;;;;;;1.40;1.20;;;23.20;59.10;;;;;;6087442;23;20022;-64
2023/01/02 00:36:19;;;;;;;1.65;1.20;;;23.10;59.00;;;;;;6087716;23;20504;-62
2023/01/02 00:38:45;;;;;;;1.20;1.10;;;23.10;59.00;;;;;;6088917;23;20014;-63
2023/01/02 00:41:10;;;;;;;1.42;1.30;;;23.10;58.90;;;;;;6087934;23;21031;-63
2023/01/02 00:43:36;;;;;;;2.20;1.40;;;23.20;59.00;;;;;;6085919;23;20018;-62
2023/01/02 00:46:02;;;;;;;2.17;1.38;;;23.10;58.90;;;;;;6087721;23;20045;-62
2023/01/02 00:48:27;;;;;;;2.17;1.20;;;23.20;58.90;;;;;;6062090;23;20085;-60
2023/01/02 00:50:53;;;;;;;1.77;0.95;;;23.20;58.90;;;;;;6085472;23;20023;-63
2023/01/02 00:53:19;;;;;;;1.75;1.38;;;23.20;58.80;;;;;;6085230;23;20022;-61
2023/01/02 00:55:45;;;;;;;2.33;1.08;;;23.20;58.80;;;;;;6088051;23;20015;-63
2023/01/02 00:58:12;;;;;;;1.60;1.10;;;23.20;58.80;;;;;;6087377;23;20018;-62
2023/01/02 01:00:38;;;;;;;2.42;1.10;;;23.20;58.80;;;;;;6088064;23;20014;-61
2023/01/02 01:03:04;;;;;;;1.33;1.00;;;23.10;58.70;;;;;;6087172;23;20426;-62
2023/01/02 01:05:29;;;;;;;1.20;1.10;;;23.20;58.70;;;;;;6087424;23;20025;-61
2023/01/02 01:07:56;;;;;;;2.60;1.15;;;23.20;58.70;;;;;;6088053;23;20014;-61
2023/01/02 01:10:24;;;;;;;2.40;0.98;;;23.20;58.60;;;;;;6085542;23;20029;-63
2023/01/02 01:12:50;;;;;;;0.80;0.80;;;23.20;58.60;;;;;;6085391;23;20166;-65
2023/01/02 01:15:16;;;;;;;1.92;1.13;;;23.20;58.60;;;;;;6061632;23;20070;-63
2023/01/02 01:17:41;;;;;;;1.35;1.10;;;23.10;58.40;;;;;;6085803;23;20014;-62
2023/01/02 01:20:08;;;;;;;1.58;1.27;;;23.20;58.60;;;;;;6086398;23;20037;-61
2023/01/02 01:22:33;;;;;;;1.70;1.20;;;23.20;58.50;;;;;;6086395;23;20652;-61
2023/01/02 01:24:59;;;;;;;1.33;1.02;;;23.20;58.50;;;;;;6087247;23;20029;-63
2023/01/02 01:27:24;;;;;;;2.20;1.33;;;23.20;58.40;;;;;;6086577;23;20399;-59
2023/01/02 01:29:50;;;;;;;1.52;1.17;;;23.20;58.40;;;;;;6087783;23;20395;-62
2023/01/02 01:32:16;;;;;;;1.95;1.13;;;23.20;58.40;;;;;;6086397;23;20021;-62
2023/01/02 01:34:42;;;;;;;1.30;1.20;;;23.20;58.30;;;;;;6086929;23;20491;-63
2023/01/02 01:37:08;;;;;;;1.08;0.95;;;23.20;58.20;;;;;;6087260;23;20017;-62
2023/01/02 01:39:33;;;;;;;2.35;1.20;;;23.20;58.20;;;;;;6085713;23;20684;-61
2023/01/02 01:42:00;;;;;;;1.77;1.10;;;23.20;58.20;;;;;;6086849;23;20018;-62
2023/01/02 01:44:48;;;;;;;1.42;1.10;;;23.20;58.20;;;;;;6085039;23;20014;-60
2023/01/02 01:47:41;;;;;;;1.13;0.85;;;23.20;58.00;;;;;;6086658;23;20105;-62
2023/01/02 01:50:13;;;;;;;2.17;1.35;;;23.20;58.00;;;;;;6087349;23;20018;-62
2023/01/02 01:52:47;;;;;;;1.13;1.02;;;23.20;58.10;;;;;;6084888;23;20022;-62
2023/01/02 01:55:16;;;;;;;1.13;0.90;;;23.20;58.00;;;;;;6084968;23;20058;-61
2023/01/02 01:57:51;;;;;;;1.70;1.10;;;23.20;58.10;;;;;;6084980;23;20351;-64
2023/01/02 02:00:16;;;;;;;1.67;1.10;;;23.20;58.00;;;;;;6086929;23;20073;-63
2023/01/02 02:02:46;;;;;;;1.27;1.17;;;23.20;58.00;;;;;;6085720;23;20018;-64
2023/01/02 02:05:16;;;;;;;1.25;1.10;;;23.20;57.90;;;;;;6085060;23;20093;-61
2023/01/02 02:07:49;;;;;;;2.05;1.30;;;23.20;57.90;;;;;;6087313;23;20339;-62
2023/01/02 02:10:15;;;;;;;1.45;1.17;;;23.20;57.90;;;;;;6087282;23;20056;-61
2023/01/02 02:12:41;;;;;;;2.75;1.20;;;23.20;57.80;;;;;;6085317;23;20018;-62
2023/01/02 02:15:09;;;;;;;1.35;1.10;;;23.20;58.60;;;;;;6086715;23;20448;-61
2023/01/02 02:17:53;;;;;;;1.88;1.25;;;23.20;57.80;;;;;;6087569;23;20350;-61
2023/01/02 02:20:36;;;;;;;1.83;1.00;;;23.20;57.70;;;;;;6085634;23;20503;-63
2023/01/02 02:23:16;;;;;;;1.17;1.05;;;23.20;57.80;;;;;;6085081;23;20011;-61
2023/01/02 02:25:54;;;;;;;1.63;1.20;;;23.20;57.70;;;;;;6085015;23;20030;-61
2023/01/02 02:28:55;;;;;;;1.83;1.13;;;23.20;57.70;;;;;;6083997;23;20347;-63
2023/01/02 02:31:38;;;;;;;2.28;1.00;;;23.20;57.60;;;;;;6085809;23;20550;-62
2023/01/02 02:34:34;;;;;;;1.25;0.93;;;23.20;57.60;;;;;;6086731;23;20029;-60
2023/01/02 02:37:14;;;;;;;2.60;1.35;;;23.20;57.60;;;;;;6087137;23;20011;-63
2023/01/02 02:39:58;;;;;;;1.45;0.90;;;23.20;57.60;;;;;;6085222;23;20098;-62
2023/01/02 02:42:45;;;;;;;1.27;1.00;;;23.20;57.60;;;;;;6084660;23;20038;-61
2023/01/02 02:45:29;;;;;;;1.55;1.10;;;23.20;57.60;;;;;;6086240;23;20011;-62
2023/01/02 02:48:08;;;;;;;1.60;1.00;;;23.20;57.60;;;;;;6086497;23;20078;-61
2023/01/02 02:50:59;;;;;;;2.10;1.13;;;23.20;57.50;;;;;;6085184;23;20270;-60
2023/01/02 02:53:31;;;;;;;1.40;1.00;;;23.20;57.40;;;;;;6071335;23;20029;-62
2023/01/02 02:56:00;;;;;;;1.55;1.00;;;23.20;57.50;;;;;;6086816;23;20458;-61
2023/01/02 02:58:28;;;;;;;1.52;1.17;;;23.20;57.40;;;;;;6085073;23;20021;-61
2023/01/02 03:01:03;;;;;;;0.98;0.95;;;23.20;57.30;;;;;;6085755;23;20010;-63
2023/01/02 03:03:28;;;;;;;1.33;1.10;;;23.20;57.30;;;;;;6085497;23;20085;-61
2023/01/02 03:06:15;;;;;;;1.15;1.05;;;23.20;57.30;;;;;;6085684;23;20054;-62
2023/01/02 03:08:49;;;;;;;1.48;1.02;;;23.20;57.30;;;;;;6086194;23;20022;-62
2023/01/02 03:11:15;;;;;;;1.60;1.20;;;23.20;57.30;;;;;;6086228;23;20089;-61
2023/01/02 03:13:58;;;;;;;1.88;0.93;;;23.20;57.20;;;;;;6087025;23;20085;-63
2023/01/02 03:16:38;;;;;;;1.38;1.00;;;23.20;57.20;;;;;;6084109;23;20026;-62
2023/01/02 03:19:17;;;;;;;2.03;1.10;;;23.20;57.20;;;;;;6087431;23;20018;-61
2023/01/02 03:22:07;;;;;;;2.47;1.20;;;23.20;57.20;;;;;;6086836;23;20046;-63
2023/01/02 03:24:35;;;;;;;1.33;1.02;;;23.20;57.20;;;;;;6070711;23;20438;-61
2023/01/02 03:27:05;;;;;;;1.30;0.80;;;23.20;57.20;;;;;;6086192;23;20014;-61
2023/01/02 03:29:41;;;;;;;1.48;1.17;;;23.20;57.10;;;;;;6086843;23;20025;-63
2023/01/02 03:32:12;;;;;;;1.73;1.10;;;23.20;57.10;;;;;;6058877;23;20025;-62
2023/01/02 03:34:41;;;;;;;1.95;1.20;;;23.20;57.10;;;;;;6086157;23;20015;-62
2023/01/02 03:37:12;;;;;;;1.60;1.00;;;23.20;57.00;;;;;;6085327;23;20053;-63
2023/01/02 03:39:50;;;;;;;1.20;1.10;;;23.20;57.00;;;;;;6086096;23;20070;-62
2023/01/02 03:42:33;;;;;;;2.35;1.20;;;23.20;56.90;;;;;;6085127;23;20076;-62
2023/01/02 03:45:10;;;;;;;1.45;0.95;;;23.30;56.90;;;;;;6086666;23;20014;-61
2023/01/02 03:47:55;;;;;;;1.40;1.17;;;23.20;56.90;;;;;;6085279;23;20081;-61
2023/01/02 03:50:31;;;;;;;1.60;1.05;;;23.20;56.90;;;;;;6084411;23;20028;-62
2023/01/02 03:52:57;;;;;;;1.60;1.10;;;23.20;56.90;;;;;;6082707;23;20018;-64
2023/01/02 03:55:25;;;;;;;1.15;1.00;;;23.20;56.90;;;;;;6085022;23;20029;-60
2023/01/02 03:58:08;;;;;;;1.48;1.10;;;23.20;56.90;;;;;;6082497;23;20093;-62
2023/01/02 04:00:51;;;;;;;3.40;1.38;;;23.30;56.90;;;;;;6060257;23;20034;-64
2023/01/02 04:03:28;;;;;;;1.75;1.00;;;23.20;56.90;;;;;;6083177;23;20101;-62
2023/01/02 04:06:06;;;;;;;1.35;1.02;;;23.20;56.90;;;;;;6083751;23;20021;-63
2023/01/02 04:08:38;;;;;;;1.75;1.10;;;23.20;56.90;;;;;;6084309;23;20024;-62
2023/01/02 04:11:06;;;;;;;2.65;1.10;;;23.20;56.90;;;;;;6086183;23;20022;-62
2023/01/02 04:13:38;;;;;;;1.52;1.25;;;23.20;56.90;;;;;;6083263;23;20018;-66
2023/01/02 04:16:07;;;;;;;2.20;1.42;;;23.30;56.90;;;;;;6060151;23;20019;-63
2023/01/02 04:18:37;;;;;;;1.98;1.00;;;23.30;56.90;;;;;;6083498;23;20010;-62
2023/01/02 04:21:09;;;;;;;;;;;23.30;56.90;;;;;;6082953;23;20026;-62
2023/01/02 04:23:50;;;;;;;5.07;1.08;;;23.30;57.00;;;;;;6084448;23;19965;-62
2023/01/02 04:26:51;;;;;;;2.30;1.30;;;23.30;56.80;;;;;;6085639;23;20072;-63
2023/01/02 04:29:17;;;;;;;;;;;23.30;56.90;;;;;;6085791;23;20011;-62
2023/01/02 04:32:09;;;;;;;1.38;1.10;;;23.20;57.20;;;;;;6084158;23;19992;-62
2023/01/02 04:34:37;;;;;;;1.80;1.00;;;23.20;57.20;;;;;;6085383;23;20129;-62
2023/01/02 04:37:03;;;;;;;1.83;1.17;;;23.20;57.00;;;;;;6084858;23;20014;-63
2023/01/02 04:39:28;;;;;;;3.30;1.20;;;23.20;57.00;;;;;;6085440;23;20018;-61
2023/01/02 04:41:54;;;;;;;4.00;1.35;;;23.10;57.10;;;;;;6083361;23;20023;-61
2023/01/02 04:44:20;;;;;;;2.15;1.10;;;23.10;57.20;;;;;;6086071;23;20018;-62
2023/01/02 04:46:45;;;;;;;4.22;1.17;;;23.20;57.00;;;;;;6086209;23;20053;-62
2023/01/02 04:49:11;;;;;;;3.00;1.40;;;23.20;56.90;;;;;;6086349;23;20018;-66
2023/01/02 04:51:37;;;;;;;4.57;1.50;;;23.10;57.00;;;;;;6083785;23;20018;-63
2023/01/02 04:54:03;;;;;;;4.55;1.25;;;23.10;57.10;;;;;;6086121;23;20462;-63
2023/01/02 04:56:28;;;;;;;2.83;1.08;;;23.20;57.10;;;;;;6084398;23;20476;-59
2023/01/02 04:58:54;;;;;;;1.98;1.02;;;23.20;56.90;;;;;;6086482;23;20275;-62
2023/01/02 05:01:20;;;;;;;1.88;1.00;;;23.20;56.80;;;;;;6085178;23;20042;-63
2023/01/02 05:03:48;;;;;;;2.20;1.30;;;23.10;56.80;;;;;;6083559;23;20018;-62
2023/01/02 05:06:14;;;;;;;1.88;0.95;;;23.10;57.00;;;;;;6084151;23;20053;-63
2023/01/02 05:08:40;;;;;;;1.20;1.00;;;23.20;56.90;;;;;;6084490;23;20025;-61
2023/01/02 05:11:08;;;;;;;3.28;1.30;;;23.20;56.80;;;;;;6085720;23;20007;-61
2023/01/02 05:13:34;;;;;;;3.25;1.10;;;23.20;56.60;;;;;;6084518;23;20019;-62
2023/01/02 05:15:59;;;;;;;1.83;1.10;;;23.20;56.80;;;;;;6084992;23;20026;-62
2023/01/02 05:18:28;;;;;;;1.98;0.82;;;23.10;56.80;;;;;;6086968;23;20813;-62
2023/01/02 05:23:47;;;;;;;2.25;1.05;;;23.20;56.70;;;;;;6088347;23;20022;-62
2023/01/02 05:23:57;;;;;;;2.92;1.20;;;23.30;56.50;;;;;;6088176;23;20093;-63
2023/01/02 05:26:22;;;;;;;1.00;0.90;;;23.20;56.70;;;;;;6085356;23;20117;-61
2023/01/02 05:28:51;;;;;;;2.28;1.02;;;23.10;56.80;;;;;;6087726;23;20022;-62
2023/01/02 05:31:17;;;;;;;1.25;0.88;;;23.20;56.80;;;;;;6086655;23;20146;-63
2023/01/02 05:33:42;;;;;;;2.10;1.30;;;23.20;56.60;;;;;;6086480;23;20038;-62
2023/01/02 05:36:08;;;;;;;2.15;0.95;;;23.20;56.50;;;;;;6087346;23;20015;-62
2023/01/02 05:38:35;;;;;;;1.80;1.08;;;23.10;56.60;;;;;;6086580;23;20442;-61
2023/01/02 05:41:05;;;;;;;1.33;1.20;;;23.10;56.70;;;;;;6087137;23;20451;-62
2023/01/02 05:43:32;;;;;;;2.30;0.90;;;23.20;56.60;;;;;;6087287;23;20021;-62
2023/01/02 05:46:05;;;;;;;2.00;1.10;;;23.20;56.40;;;;;;6085351;23;20427;-62
2023/01/02 05:48:30;;;;;;;1.20;1.10;;;23.20;56.50;;;;;;6088177;23;20412;-63
2023/01/02 05:51:00;;;;;;;1.08;0.90;;;23.10;56.60;;;;;;6088073;23;20047;-61
2023/01/02 05:53:26;;;;;;;1.67;1.08;;;23.20;56.60;;;;;;6086784;23;20018;-62
2023/01/02 05:55:51;;;;;;;1.95;1.00;;;23.20;56.40;;;;;;6088002;23;20105;-63
2023/01/02 05:58:17;;;;;;;3.78;1.00;;;23.20;56.30;;;;;;6085548;23;20150;-62
2023/01/02 06:00:43;;;;;;;1.10;1.00;;;23.10;56.40;;;;;;6088281;23;20423;-63
2023/01/02 06:03:08;;;;;;;1.40;0.82;;;23.10;56.50;;;;;;6086052;23;20013;-65
2023/01/02 06:05:34;;;;;;;1.60;1.10;;;23.20;56.40;;;;;;6087864;23;20024;-61
2023/01/02 06:08:00;;;;;;;2.05;1.00;;;23.20;56.20;;;;;;6085742;23;20014;-63
2023/01/02 06:10:25;;;;;;;3.22;1.10;;;23.10;56.30;;;;;;6085937;23;20713;-62
2023/01/02 06:12:51;;;;;;;1.80;0.88;;;23.10;56.40;;;;;;6087659;23;20016;-62
2023/01/02 06:15:17;;;;;;;1.13;1.00;;;23.10;56.40;;;;;;6085629;23;20015;-61
2023/01/02 06:17:42;;;;;;;2.50;0.90;;;23.20;56.30;;;;;;6086204;23;20025;-61
2023/01/02 06:20:08;;;;;;;2.15;1.20;;;23.20;56.80;;;;;;6084253;23;20022;-63
2023/01/02 06:22:34;;;;;;;1.63;1.10;;;23.10;56.20;;;;;;6086209;23;20098;-61
2023/01/02 06:25:00;;;;;;;1.38;0.95;;;23.10;56.30;;;;;;6061898;23;20094;-61
2023/01/02 06:27:25;;;;;;;1.38;0.90;;;23.20;56.20;;;;;;6087371;23;20884;-62
2023/01/02 06:29:51;;;;;;;2.20;1.13;;;23.20;56.00;;;;;;6087801;23;20093;-63
2023/01/02 06:32:16;;;;;;;1.77;0.98;;;23.10;56.00;;;;;;6086603;23;20445;-62
2023/01/02 06:34:42;;;;;;;1.65;0.90;;;23.10;56.20;;;;;;6085415;23;20029;-62
2023/01/02 06:37:08;;;;;;;1.67;0.80;;;23.10;56.20;;;;;;6061561;23;20018;-61
2023/01/02 06:39:33;;;;;;;1.65;0.90;;;23.20;56.10;;;;;;6087368;23;20015;-61
2023/01/02 06:41:59;;;;;;;1.27;1.00;;;23.20;55.90;;;;;;6085780;23;20021;-61
2023/01/02 06:44:25;;;;;;;1.30;1.10;;;23.10;55.90;;;;;;6085257;23;20054;-65
2023/01/02 06:46:50;;;;;;;1.65;0.85;;;23.10;56.10;;;;;;6087436;23;20405;-62
2023/01/02 06:49:16;;;;;;;1.52;1.02;;;23.10;56.00;;;;;;6085872;23;20324;-62
2023/01/02 06:51:41;;;;;;;1.08;0.90;;;23.20;55.80;;;;;;6085229;23;20049;-61
2023/01/02 06:54:07;;;;;;;1.13;0.80;;;23.20;55.80;;;;;;6087266;23;20317;-62
2023/01/02 06:56:33;;;;;;;1.75;0.95;;;23.10;55.80;;;;;;6060901;23;20018;-62
2023/01/02 06:58:58;;;;;;;2.13;0.90;;;23.10;55.80;;;;;;6087469;23;20010;-61
2023/01/02 07:01:24;;;;;;;1.35;1.10;;;23.20;55.80;;;;;;6085365;23;20352;-64
2023/01/02 07:03:50;;;;;;;1.90;0.85;;;23.20;55.60;;;;;;6085035;23;20014;-59
2023/01/02 07:06:19;;;;;;;1.20;1.10;;;23.10;55.70;;;;;;6084574;23;20018;-62
2023/01/02 07:08:45;;;;;;;2.05;1.45;;;23.10;55.70;;;;;;6085313;23;20018;-64
2023/01/02 07:11:14;;;;;;;1.98;1.00;;;23.10;55.60;;;;;;6086990;23;20018;-62
2023/01/02 07:13:41;;;;;;;0.73;0.70;;;23.20;55.50;;;;;;6087728;23;20022;-62
2023/01/02 07:16:09;;;;;;;1.48;0.90;;;23.20;55.30;;;;;;6084233;23;20022;-62
2023/01/02 07:18:36;;;;;;;1.15;0.77;;;23.10;55.40;;;;;;6084661;23;20022;-63
2023/01/02 07:21:02;;;;;;;1.83;0.80;;;23.10;55.40;;;;;;6084740;23;20431;-62
2023/01/02 07:23:28;;;;;;;2.53;0.88;;;23.10;55.50;;;;;;6087066;23;20320;-63
2023/01/02 07:25:55;;;;;;;1.52;0.80;;;23.20;55.30;;;;;;6086520;23;20021;-63
2023/01/02 07:28:21;;;;;;;1.33;0.75;;;23.20;55.10;;;;;;6086756;23;20594;-62
2023/01/02 07:30:47;;;;;;;2.25;0.70;;;23.10;55.10;;;;;;6087210;23;20038;-63
2023/01/02 07:33:12;;;;;;;1.83;0.77;;;23.10;55.30;;;;;;6086460;23;20518;-61
2023/01/02 07:35:38;;;;;;;1.20;0.85;;;23.10;55.30;;;;;;6084647;23;20038;-60
2023/01/02 07:38:04;;;;;;;1.42;0.80;;;23.10;55.30;;;;;;6085276;23;20023;-62
2023/01/02 07:40:30;;;;;;;0.60;0.60;;;23.10;55.30;;;;;;6083173;23;20073;-66
2023/01/02 07:42:56;;;;;;;1.10;0.68;;;23.10;55.20;;;;;;6059793;23;20021;-62
2023/01/02 07:45:22;;;;;;;2.30;0.90;;;23.10;55.10;;;;;;6083971;23;20014;-63
2023/01/02 07:47:47;;;;;;;4.88;1.15;;;23.10;55.00;;;;;;6084511;23;20078;-62
2023/01/02 07:50:13;;;;;;;1.30;0.70;;;23.10;55.00;;;;;;6084233;23;20097;-63
2023/01/02 07:52:40;;;;;;;2.17;0.80;;;23.00;54.90;;;;;;6084422;23;20405;-62
2023/01/02 07:55:06;;;;;;;2.67;0.90;;;23.00;54.90;;;;;;6085791;23;20098;-62
2023/01/02 07:57:32;;;;;;;2.13;0.70;;;23.00;54.80;;;;;;6084751;23;20089;-62
2023/01/02 07:59:58;;;;;;;1.17;0.60;;;23.00;54.60;;;;;;6085224;23;20022;-64
2023/01/02 08:02:23;;;;;;;1.55;0.73;;;23.00;54.70;;;;;;6084202;23;20502;-63
2023/01/02 08:04:49;;;;;;;4.80;0.90;;;23.00;54.70;;;;;;6084658;23;20363;-63
2023/01/02 08:07:14;;;;;;;3.22;0.80;;;23.00;54.70;;;;;;6083143;23;20326;-62
2023/01/02 08:09:40;;;;;;;1.65;0.90;;;22.90;54.60;;;;;;6086171;23;20018;-62
2023/01/02 08:12:06;;;;;;;0.60;0.60;;;22.90;54.50;;;;;;6084326;23;20018;-64
2023/01/02 08:14:31;;;;;;;2.45;0.70;;;22.90;54.50;;;;;;6084750;23;20261;-60
2023/01/02 08:16:57;;;;;;;2.28;0.70;;;22.90;54.30;;;;;;6085034;23;20017;-62
2023/01/02 08:19:23;;;;;;;1.45;0.70;;;22.90;54.30;;;;;;6084913;23;20018;-61
2023/01/02 08:21:48;;;;;;;1.55;0.68;;;22.90;54.30;;;;;;6082949;23;20037;-60
2023/01/02 08:24:14;;;;;;;3.47;0.90;;;22.90;54.30;;;;;;6083401;23;20023;-63
2023/01/02 08:26:40;;;;;;;0.98;0.70;;;22.90;54.10;;;;;;6083201;23;20018;-63
2023/01/02 08:29:07;;;;;;;1.15;0.82;;;22.90;54.00;;;;;;6083538;23;20022;-61
2023/01/02 08:31:34;;;;;;;1.98;0.60;;;22.90;54.00;;;;;;6083847;23;20018;-61
2023/01/02 08:34:00;;;;;;;0.90;0.70;;;22.90;53.90;;;;;;6085267;23;20022;-62
2023/01/02 08:36:26;;;;;;;1.98;0.70;;;22.90;53.80;;;;;;6059791;23;20021;-61
2023/01/02 08:38:51;;;;;;;1.30;0.98;;;22.90;53.80;;;;;;6083980;23;20774;-61
2023/01/02 08:41:32;;;;;;;1.92;0.73;;;22.90;53.80;;;;;;6084788;23;20018;-62
2023/01/02 08:43:57;;;;;;;0.98;0.70;;;22.90;53.60;;;;;;6086399;23;20027;-62
2023/01/02 08:46:23;;;;;;;1.42;0.80;;;22.90;53.70;;;;;;6085249;23;20032;-61
2023/01/02 08:48:48;;;;;;;1.40;0.60;;;22.90;53.60;;;;;;6086676;23;20018;-61
2023/01/02 08:51:14;;;;;;;1.52;0.68;;;22.80;53.70;;;;;;6086045;23;20029;-62
2023/01/02 08:53:40;;;;;;;1.58;0.60;;;22.80;53.60;;;;;;6062592;23;20018;-60
2023/01/02 08:56:25;;;;;;;1.85;0.40;;;22.80;53.50;;;;;;6062003;23;20014;-60
2023/01/02 08:58:53;;;;;;;1.23;0.60;;;22.90;53.30;;;;;;6086763;23;20014;-61
2023/01/02 09:01:19;;;;;;;2.17;0.75;;;22.90;53.40;;;;;;6086527;23;20011;-58
2023/01/02 09:03:45;;;;;;;0.73;0.50;;;22.90;53.30;;;;;;6088703;23;20023;-60
2023/01/02 09:06:10;;;;;;;1.38;0.50;;;22.90;53.20;;;;;;6086997;23;20021;-61
2023/01/02 09:08:36;;;;;;;1.20;0.60;;;22.90;53.10;;;;;;6061872;23;20101;-60
2023/01/02 09:11:14;;;;;;;2.22;0.55;;;22.90;53.10;;;;;;6062994;23;20053;-64
2023/01/02 09:13:40;;;;;;;2.08;0.47;;;22.90;52.80;;;;;;6063296;23;20018;-62
2023/01/02 09:16:07;;;;;;;1.02;0.57;;;22.90;52.90;;;;;;6085620;23;20509;-62
2023/01/02 09:18:33;;;;;;;0.50;0.43;;;22.90;52.80;;;;;;6087629;23;20063;-63
2023/01/02 09:20:59;;;;;;;1.02;0.50;;;22.90;52.80;;;;;;6088064;23;20014;-63
2023/01/02 09:23:25;;;;;;;0.52;0.40;;;22.90;52.80;;;;;;6086997;23;20022;-61
2023/01/02 09:25:51;;;;;;;0.40;0.40;;;22.90;52.60;;;;;;6087678;23;20514;-61
2023/01/02 09:28:16;;;;;;;0.85;0.60;;;22.90;52.60;;;;;;6084977;23;20473;-63
2023/01/02 09:30:42;;;;;;;1.90;0.52;;;22.90;52.50;;;;;;6085976;23;20085;-60
2023/01/02 09:33:08;;;;;;;0.40;0.40;;;22.90;52.50;;;;;;6086833;23;20471;-62
2023/01/02 09:35:34;;;;;;;1.08;0.60;;;22.90;52.40;;;;;;6086427;23;20025;-62
2023/01/02 09:37:59;;;;;;;1.55;0.50;;;22.90;52.40;;;;;;6086344;23;20014;-62
2023/01/02 09:40:26;;;;;;;1.15;0.40;;;22.90;52.30;;;;;;6087607;23;20097;-61
2023/01/02 09:42:52;;;;;;;0.68;0.47;;;22.90;52.30;;;;;;6087576;23;20010;-62
2023/01/02 09:45:18;;;;;;;0.63;0.40;;;22.90;52.30;;;;;;6086672;23;20475;-64
2023/01/02 09:47:46;;;;;;;2.15;0.85;;;22.90;52.40;;;;;;6087054;23;20174;-62
2023/01/02 09:50:26;;;;;;;1.92;0.93;;;22.90;53.10;;;;;;6061142;23;20014;-62
2023/01/02 09:52:54;;;;;;;;;;;22.80;52.40;;;;;;6084693;23;20069;-61
2023/01/02 09:55:35;;;;;;;3.75;1.02;;;22.80;52.40;;;;;;6086982;23;19921;-63
2023/01/02 09:58:09;;;;;;;3.20;1.23;;;22.80;52.60;;;;;;6085036;23;20281;-60
2023/01/02 10:00:37;;;;;;;7.03;1.75;;;22.90;52.80;;;;;;6086806;23;20018;-62
2023/01/02 10:03:22;;;;;;;4.80;1.30;;;22.90;52.90;;;;;;6085889;23;20075;-61
2023/01/02 10:05:50;;;;;;;3.65;1.20;;;22.90;53.00;;;;;;6061216;23;20026;-61
2023/01/02 10:08:35;;;;;;;6.43;1.25;;;22.90;53.10;;;;;;6085288;23;20345;-62
2023/01/02 10:11:18;;;;;;;10.23;1.30;;;22.90;53.20;;;;;;6087389;23;20022;-61
2023/01/02 10:13:55;;;;;;;5.20;1.27;;;22.90;53.20;;;;;;6084671;23;20398;-60
2023/01/02 10:16:26;;;;;;;3.25;1.27;;;22.90;53.30;;;;;;6084539;23;20145;-61
2023/01/02 10:18:54;;;;;;;6.30;1.15;;;22.90;53.30;;;;;;6087460;23;20015;-62
2023/01/02 10:21:36;;;;;;;3.55;1.15;;;22.90;53.30;;;;;;6085723;23;20010;-61
2023/01/02 10:24:09;;;;;;;3.97;1.05;;;22.90;53.40;;;;;;6084836;23;20018;-61
2023/01/02 10:26:37;;;;;;;3.47;1.20;;;23.00;54.20;;;;;;6084588;23;20022;-61
2023/01/02 10:29:15;;;;;;;2.85;0.90;;;22.90;53.40;;;;;;6086699;23;20010;-61
2023/01/02 10:31:52;;;;;;;4.22;1.17;;;22.90;53.50;;;;;;6084941;23;20142;-61
2023/01/02 10:34:22;;;;;;;2.10;0.82;;;23.00;53.50;;;;;;6086206;23;20018;-60
2023/01/02 10:36:49;;;;;;;5.30;1.23;;;22.90;53.60;;;;;;6085274;23;20014;-62
2023/01/02 10:39:26;;;;;;;1.65;0.80;;;22.90;53.80;;;;;;6087337;23;20018;-61
2023/01/02 10:41:55;;;;;;;3.90;0.90;;;22.90;53.80;;;;;;6085468;23;20023;-60
2023/01/02 10:44:29;;;;;;;2.80;1.00;;;22.90;53.80;;;;;;6060466;23;20026;-61
2023/01/02 10:46:56;;;;;;;3.75;0.95;;;22.90;53.80;;;;;;6085702;23;20019;-62
2023/01/02 10:49:24;;;;;;;2.15;0.70;;;22.90;53.90;;;;;;6087012;23;20017;-61
2023/01/02 10:52:03;;;;;;;2.70;0.77;;;22.90;53.90;;;;;;6083897;23;20021;-60
2023/01/02 10:54:29;;;;;;;2.58;0.93;;;23.00;53.90;;;;;;6084959;23;20045;-62
2023/01/02 10:56:56;;;;;;;3.90;1.00;;;22.90;53.90;;;;;;6084072;23;20443;-61
2023/01/02 10:59:24;;;;;;;1.45;0.65;;;23.00;54.00;;;;;;6087069;23;20102;-60
2023/01/02 11:01:55;;;;;;;2.35;0.85;;;23.00;53.90;;;;;;6083246;23;20010;-61
2023/01/02 11:04:26;;;;;;;3.45;0.70;;;23.00;53.90;;;;;;6086123;23;20018;-61
2023/01/02 11:06:58;;;;;;;2.83;0.82;;;22.90;53.90;;;;;;6087114;23;20093;-61
2023/01/02 11:09:29;;;;;;;2.25;0.98;;;22.90;53.80;;;;;;6084459;23;20021;-61
2023/01/02 11:11:58;;;;;;;2.47;0.85;;;22.90;53.70;;;;;;6085834;23;20023;-62
2023/01/02 11:14:32;;;;;;;3.15;0.82;;;22.90;53.70;;;;;;6060822;23;20420;-61
2023/01/02 11:17:05;;;;;;;2.30;0.70;;;22.90;53.70;;;;;;6083561;23;20650;-60
2023/01/02 11:19:42;;;;;;;2.47;0.80;;;22.90;53.70;;;;;;6086630;23;20011;-64
2023/01/02 11:22:09;;;;;;;1.90;0.65;;;22.90;53.80;;;;;;6085407;23;20581;-60
2023/01/02 11:24:52;;;;;;;1.23;0.82;;;22.90;53.70;;;;;;6084486;23;20015;-60
2023/01/02 11:27:18;;;;;;;2.35;0.60;;;22.90;53.60;;;;;;6086001;23;20018;-61
2023/01/02 11:29:47;;;;;;;1.08;0.60;;;22.90;53.50;;;;;;6086082;23;20030;-61
2023/01/02 11:32:37;;;;;;;1.63;0.70;;;22.90;53.40;;;;;;6084192;23;20022;-60
2023/01/02 11:35:04;;;;;;;2.70;0.68;;;23.00;53.40;;;;;;6071015;23;20420;-60
2023/01/02 11:37:30;;;;;;;2.03;0.68;;;22.90;53.50;;;;;;6084800;23;20018;-62
2023/01/02 11:40:01;;;;;;;2.53;0.65;;;22.90;53.40;;;;;;6086723;23;20082;-60
2023/01/02 11:45:24;;;;;;;2.63;0.70;;;22.90;53.50;;;;;;6084462;23;20026;-61
2023/01/02 11:47:55;;;;;;;2.28;0.88;;;22.90;53.40;;;;;;6085526;23;20014;-62
2023/01/02 11:50:22;;;;;;;0.93;0.52;;;22.90;53.30;;;;;;6085135;23;20022;-62
2023/01/02 11:53:16;;;;;;;1.42;0.50;;;23.00;53.30;;;;;;6084670;23;20044;-61
2023/01/02 11:56:03;;;;;;;1.98;0.60;;;22.90;53.20;;;;;;6083383;23;20023;-61
2023/01/02 11:58:29;;;;;;;4.15;0.70;;;22.90;53.10;;;;;;6083840;23;20093;-60
2023/01/02 12:01:04;;;;;;;3.47;0.70;;;22.90;53.20;;;;;;6085683;23;20026;-61
2023/01/02 12:03:31;;;;;;;3.58;0.75;;;22.90;53.10;;;;;;6085851;23;20018;-61
2023/01/02 12:06:20;;;;;;;1.52;0.60;;;22.90;53.20;;;;;;6084510;23;20022;-61
2023/01/02 12:09:24;;;;;;;2.67;0.60;;;22.90;53.00;;;;;;6086425;23;20394;-61
2023/01/02 12:12:14;;;;;;;2.67;0.70;;;23.00;53.00;;;;;;6084022;23;20526;-60
2023/01/02 12:14:47;;;;;;;2.72;0.57;;;22.90;53.10;;;;;;6085879;23;20026;-60
2023/01/02 12:17:32;;;;;;;2.83;0.60;;;22.90;53.20;;;;;;6083210;23;20015;-60
2023/01/02 12:20:22;;;;;;;2.75;0.70;;;23.00;53.30;;;;;;6086413;23;20015;-58
2023/01/02 12:23:00;;;;;;;1.90;0.60;;;23.00;53.30;;;;;;6083126;23;20049;-62
2023/01/02 12:25:35;;;;;;;3.10;1.15;;;23.00;53.30;;;;;;6084929;23;20081;-56
2023/01/02 12:28:21;;;;;;;9.27;0.80;;;23.00;53.30;;;;;;6082923;23;20102;-62
2023/01/02 12:31:18;;;;;;;7.50;0.80;;;23.00;53.40;;;;;;6081913;23;20022;-61
2023/01/02 12:34:22;;;;;;;4.57;0.70;;;23.00;53.50;;;;;;6080405;23;20019;-63
2023/01/02 12:37:06;;;;;;;4.97;1.15;;;22.90;53.40;;;;;;6075213;23;20029;-62
2023/01/02 12:40:00;;;;;;;1.85;0.50;;;23.00;53.40;;;;;;6057236;23;20045;-62
2023/01/02 12:42:46;;;;;;;3.85;0.73;;;22.90;54.00;;;;;;6059261;23;20022;-61
2023/01/02 12:45:28;;;;;;;3.70;0.60;;;22.90;53.30;;;;;;6083859;23;20475;-63
2023/01/02 12:48:21;;;;;;;2.55;0.50;;;22.90;53.20;;;;;;6084208;23;20018;-64
2023/01/02 12:50:57;;;;;;;3.25;0.63;;;23.00;53.20;;;;;;6085060;23;20069;-62
2023/01/02 12:53:53;;;;;;;3.03;0.82;;;23.00;53.10;;;;;;6084540;23;20018;-61
2023/01/02 12:56:44;;;;;;;4.35;0.50;;;22.90;53.00;;;;;;6074341;23;20328;-62
2023/01/02 12:59:28;;;;;;;2.28;0.50;;;22.90;53.00;;;;;;6077977;23;20093;-62
2023/01/02 13:02:23;;;;;;;2.33;0.50;;;22.90;52.80;;;;;;6084636;23;20024;-61
2023/01/02 13:04:56;;;;;;;2.17;0.88;;;22.90;52.70;;;;;;6086305;23;20454;-61
2023/01/02 13:07:30;;;;;;;2.42;0.65;;;22.90;52.80;;;;;;6083728;23;20026;-61
2023/01/02 13:10:00;;;;;;;1.70;0.63;;;22.90;52.80;;;;;;6087439;23;20015;-61
2023/01/02 13:12:30;;;;;;;1.70;0.60;;;22.90;52.60;;;;;;6085309;23;20092;-61